Time;durP1;ratioP1;P1;durP2;ratioP2;P2;SDS_P1;SDS_P2;PMS_P1;PMS_P2;Temp;Humidity;BMP_temperature;BMP_pressure;BME280_temperature;BME280_humidity;BME280_pressure;Samples;Min_cycle;Max_cycle;Signal;HPM_P1;HPM_P2
2023/01/16 00:01:27;;;;;;;4.07;1.70;;;9.50;99.90;;;;;;6155865;23;20157;-73
2023/01/16 00:03:53;;;;;;;2.03;1.40;;;9.50;99.90;;;;;;6154170;23;20168;-73
2023/01/16 00:06:20;;;;;;;2.97;1.57;;;9.60;99.90;;;;;;6120797;23;20157;-73
2023/01/16 00:08:48;;;;;;;1.90;1.40;;;9.60;99.90;;;;;;6155412;23;20219;-73
2023/01/16 00:11:15;;;;;;;2.13;1.30;;;9.60;99.90;;;;;;6121899;23;20630;-73
2023/01/16 00:13:41;;;;;;;4.27;1.93;;;9.60;99.90;;;;;;6120594;23;20161;-73
2023/01/16 00:16:08;;;;;;;1.90;1.47;;;9.60;99.90;;;;;;6156345;23;20240;-73
2023/01/16 00:18:35;;;;;;;2.87;1.60;;;9.70;99.90;;;;;;6157336;23;20507;-73
2023/01/16 00:21:01;;;;;;;3.10;1.47;;;9.70;99.90;;;;;;6157704;23;20157;-73
2023/01/16 00:23:28;;;;;;;2.93;1.30;;;9.70;99.90;;;;;;6145398;23;20165;-73
2023/01/16 00:25:54;;;;;;;2.87;1.40;;;9.70;99.90;;;;;;6156588;23;20599;-73
2023/01/16 00:28:21;;;;;;;4.87;1.80;;;9.70;99.90;;;;;;6143760;23;20185;-73
2023/01/16 00:30:47;;;;;;;2.03;1.40;;;9.70;99.90;;;;;;6145845;23;20259;-73
2023/01/16 00:33:14;;;;;;;3.47;1.40;;;9.80;99.90;;;;;;6156435;23;20859;-73
2023/01/16 00:35:41;;;;;;;1.90;1.30;;;9.80;99.90;;;;;;6156726;23;20203;-73
2023/01/16 00:38:07;;;;;;;2.83;1.70;;;9.80;99.90;;;;;;6121381;23;20223;-74
2023/01/16 00:40:35;;;;;;;4.37;1.70;;;9.80;99.90;;;;;;6119840;23;20588;-73
2023/01/16 00:43:02;;;;;;;2.70;1.57;;;9.80;99.90;;;;;;6157148;23;20483;-73
2023/01/16 00:45:29;;;;;;;2.30;1.50;;;9.90;99.90;;;;;;6157524;23;20260;-73
2023/01/16 00:47:55;;;;;;;2.63;1.23;;;9.90;99.90;;;;;;6157807;23;20935;-73
2023/01/16 00:50:21;;;;;;;2.67;1.77;;;9.90;99.90;;;;;;6121820;23;20193;-73
2023/01/16 00:52:47;;;;;;;2.90;1.73;;;10.00;99.90;;;;;;6156748;23;20252;-73
2023/01/16 00:55:13;;;;;;;2.50;1.40;;;9.90;99.90;;;;;;6157086;23;20543;-73
2023/01/16 00:57:40;;;;;;;1.87;1.57;;;10.00;99.90;;;;;;6156493;23;20161;-73
2023/01/16 01:00:08;;;;;;;5.50;1.87;;;10.00;99.90;;;;;;6121227;23;20180;-73
2023/01/16 01:02:36;;;;;;;4.90;1.53;;;10.00;99.90;;;;;;6156163;23;20168;-74
2023/01/16 01:05:02;;;;;;;2.07;1.33;;;10.00;99.90;;;;;;6156609;23;20161;-74
2023/01/16 01:07:29;;;;;;;3.03;1.50;;;10.00;99.90;;;;;;6156365;23;20195;-74
2023/01/16 01:09:55;;;;;;;2.20;1.50;;;10.00;99.90;;;;;;6145712;23;20168;-74
2023/01/16 01:12:21;;;;;;;2.73;1.30;;;10.00;99.90;;;;;;6156246;23;20157;-74
2023/01/16 01:14:49;;;;;;;1.53;1.30;;;10.00;99.90;;;;;;6155934;23;20161;-74
2023/01/16 01:17:15;;;;;;;1.60;1.50;;;10.00;99.90;;;;;;6093147;23;20176;-74
2023/01/16 01:19:42;;;;;;;2.37;1.63;;;10.10;99.90;;;;;;6156031;23;20168;-74
2023/01/16 01:22:09;;;;;;;4.80;1.47;;;10.00;99.90;;;;;;6097419;23;20573;-74
2023/01/16 01:24:36;;;;;;;4.20;1.57;;;10.00;99.90;;;;;;6156307;23;20153;-74
2023/01/16 01:27:05;;;;;;;1.40;1.30;;;10.00;99.90;;;;;;6120398;23;20193;-75
2023/01/16 01:29:31;;;;;;;2.33;1.40;;;10.00;99.90;;;;;;6157509;23;20157;-74
2023/01/16 01:31:57;;;;;;;3.73;1.40;;;10.00;99.90;;;;;;6120493;23;20460;-74
2023/01/16 01:34:24;;;;;;;3.07;1.30;;;10.00;99.90;;;;;;6155232;23;20663;-74
2023/01/16 01:36:51;;;;;;;4.43;1.70;;;10.00;99.90;;;;;;6156495;23;20195;-74
2023/01/16 01:39:17;;;;;;;2.47;1.40;;;10.00;99.90;;;;;;6155655;23;20176;-74
2023/01/16 01:41:43;;;;;;;4.23;1.50;;;10.00;99.90;;;;;;6142825;23;20195;-74
2023/01/16 01:44:55;;;;;;;2.83;1.50;;;10.00;99.90;;;;;;6156403;23;20157;-74
2023/01/16 01:47:37;;;;;;;2.67;1.40;;;10.00;99.90;;;;;;6157620;23;20191;-74
2023/01/16 01:50:35;;;;;;;1.83;1.30;;;10.10;99.90;;;;;;6157189;23;20219;-74
2023/01/16 01:53:31;;;;;;;2.00;1.53;;;10.10;99.90;;;;;;6104318;23;20240;-74
2023/01/16 01:56:12;;;;;;;2.17;1.50;;;10.10;99.90;;;;;;6156213;23;20193;-75
2023/01/16 01:58:39;;;;;;;2.23;1.40;;;10.10;99.90;;;;;;6119939;23;20188;-74
2023/01/16 02:01:06;;;;;;;2.57;1.50;;;10.10;99.90;;;;;;6120168;23;20491;-74
2023/01/16 02:04:04;;;;;;;1.63;1.23;;;10.10;99.90;;;;;;6154460;23;20160;-74
2023/01/16 02:06:53;;;;;;;1.30;1.13;;;10.10;99.90;;;;;;6119019;23;20602;-74
2023/01/16 02:09:22;;;;;;;5.20;1.47;;;10.10;99.90;;;;;;6156712;23;20235;-74
2023/01/16 02:12:04;;;;;;;1.83;1.27;;;10.10;99.90;;;;;;6120729;23;20621;-70
2023/01/16 02:14:37;;;;;;;2.53;1.60;;;10.10;99.90;;;;;;6096190;23;20156;-71
2023/01/16 02:20:25;;;;;;;3.83;1.97;;;10.10;99.90;;;;;;6119327;23;20161;-71
2023/01/16 02:23:41;;;;;;;2.20;1.40;;;10.10;99.90;;;;;;6117650;23;20168;-71
2023/01/16 02:26:31;;;;;;;1.77;1.37;;;10.10;99.90;;;;;;6107930;23;20645;-72
2023/01/16 02:29:50;;;;;;;2.60;1.50;;;10.10;99.90;;;;;;6155619;23;20542;-71
2023/01/16 02:32:37;;;;;;;3.80;1.40;;;10.10;99.90;;;;;;6028829;23;20726;-71
2023/01/16 02:35:30;;;;;;;2.27;1.50;;;10.10;99.90;;;;;;6156439;23;20502;-71
2023/01/16 02:38:21;;;;;;;1.83;1.57;;;10.20;99.90;;;;;;6157037;23;20171;-71
2023/01/16 02:41:23;;;;;;;2.30;1.40;;;10.20;99.90;;;;;;6153414;23;20169;-74
2023/01/16 02:44:02;;;;;;;3.33;1.50;;;10.20;99.90;;;;;;6119370;23;20175;-75
2023/01/16 02:46:45;;;;;;;2.43;1.60;;;10.20;99.90;;;;;;6119982;23;20161;-75
2023/01/16 02:49:28;;;;;;;3.87;1.70;;;10.10;99.90;;;;;;6119368;23;20160;-74
2023/01/16 02:52:23;;;;;;;3.60;1.90;;;10.10;99.90;;;;;;6120185;23;20180;-74
2023/01/16 02:55:03;;;;;;;2.83;1.40;;;10.10;99.90;;;;;;6156230;23;20157;-74
2023/01/16 02:57:45;;;;;;;2.87;1.50;;;10.20;99.90;;;;;;6095560;23;20195;-74
2023/01/16 03:00:16;;;;;;;4.63;1.60;;;10.20;99.90;;;;;;6120493;23;20168;-74
2023/01/16 03:02:44;;;;;;;3.53;1.50;;;10.20;99.90;;;;;;6118514;23;20222;-74
2023/01/16 03:05:10;;;;;;;1.60;1.30;;;10.20;99.90;;;;;;6155568;23;20575;-74
2023/01/16 03:07:51;;;;;;;1.77;1.60;;;10.10;99.90;;;;;;6117895;23;20200;-74
2023/01/16 03:10:39;;;;;;;2.47;1.40;;;10.10;99.90;;;;;;6119538;23;20247;-74
2023/01/16 03:13:32;;;;;;;2.27;1.70;;;10.10;99.90;;;;;;6095621;23;20168;-74
2023/01/16 03:16:33;;;;;;;2.23;1.67;;;10.10;99.90;;;;;;6155711;23;20685;-75
2023/01/16 03:19:19;;;;;;;1.40;1.27;;;10.20;99.90;;;;;;6119648;23;20671;-75
2023/01/16 03:22:17;;;;;;;3.43;1.40;;;10.10;99.90;;;;;;6119430;23;20164;-75
2023/01/16 03:25:21;;;;;;;2.00;1.53;;;10.20;99.90;;;;;;6120210;23;20153;-74
2023/01/16 03:28:16;;;;;;;1.30;1.20;;;10.10;99.90;;;;;;6097108;23;20196;-74
2023/01/16 03:31:33;;;;;;;1.70;1.03;;;10.10;99.90;;;;;;6095807;23;20618;-74
2023/01/16 03:34:30;;;;;;;1.63;1.00;;;10.10;99.90;;;;;;6112385;23;20165;-74
2023/01/16 03:37:04;;;;;;;1.27;0.87;;;10.00;99.90;;;;;;6157372;23;20157;-74
2023/01/16 03:39:41;;;;;;;1.43;0.90;;;10.10;99.90;;;;;;6122872;23;20196;-74
2023/01/16 03:42:25;;;;;;;1.40;1.10;;;10.10;99.90;;;;;;6119683;23;20247;-74
2023/01/16 03:45:02;;;;;;;1.00;0.80;;;10.10;99.90;;;;;;6156769;23;20434;-74
2023/01/16 03:47:40;;;;;;;1.77;1.00;;;10.10;99.90;;;;;;6122022;23;20216;-74
2023/01/16 03:50:13;;;;;;;4.13;1.00;;;10.10;99.90;;;;;;6157070;23;20157;-74
2023/01/16 03:52:46;;;;;;;1.73;1.10;;;10.10;99.90;;;;;;6157785;23;20251;-74
2023/01/16 03:55:39;;;;;;;2.73;1.10;;;10.10;99.90;;;;;;6122096;23;20619;-74
2023/01/16 03:58:41;;;;;;;1.60;1.00;;;10.10;99.90;;;;;;6157863;23;20165;-74
2023/01/16 04:01:37;;;;;;;1.63;1.10;;;10.10;99.90;;;;;;6117666;23;20506;-74
2023/01/16 04:04:18;;;;;;;1.33;1.03;;;10.10;99.90;;;;;;6120766;23;20175;-74
2023/01/16 04:07:08;;;;;;;2.83;1.10;;;10.10;99.90;;;;;;6120778;23;20254;-74
2023/01/16 04:10:06;;;;;;;3.53;1.10;;;10.10;99.90;;;;;;6157551;23;20153;-74
2023/01/16 04:12:37;;;;;;;1.20;1.10;;;10.10;99.90;;;;;;6121451;23;20169;-74
2023/01/16 04:15:10;;;;;;;1.13;0.87;;;10.10;99.90;;;;;;6121344;23;20152;-74
2023/01/16 04:17:39;;;;;;;1.60;0.73;;;10.10;99.90;;;;;;6121346;23;20184;-74
2023/01/16 04:20:08;;;;;;;1.33;0.80;;;10.10;99.90;;;;;;6157094;23;20161;-74
2023/01/16 04:22:34;;;;;;;2.10;0.87;;;10.10;99.90;;;;;;6157218;23;20924;-74
2023/01/16 04:25:08;;;;;;;1.00;0.80;;;10.10;99.90;;;;;;6157392;23;20171;-74
2023/01/16 04:27:34;;;;;;;0.87;0.87;;;10.20;99.90;;;;;;6158023;23;20203;-74
2023/01/16 04:30:01;;;;;;;1.13;0.80;;;10.20;99.90;;;;;;6120850;23;20156;-74
2023/01/16 04:32:28;;;;;;;1.10;0.80;;;10.20;99.90;;;;;;6157397;23;20157;-74
2023/01/16 04:34:55;;;;;;;0.77;0.70;;;10.20;99.90;;;;;;6145733;23;20503;-74
2023/01/16 04:37:21;;;;;;;0.87;0.80;;;10.20;99.90;;;;;;6121428;23;20611;-74
2023/01/16 04:39:49;;;;;;;1.00;0.77;;;10.20;99.90;;;;;;6095563;23;20167;-74
2023/01/16 04:42:16;;;;;;;1.10;0.90;;;10.30;99.90;;;;;;6154030;23;20191;-74
2023/01/16 04:44:44;;;;;;;0.80;0.70;;;10.30;99.90;;;;;;6120936;23;20164;-74
2023/01/16 04:47:14;;;;;;;0.97;0.87;;;10.30;99.90;;;;;;6157161;23;20193;-74
2023/01/16 04:49:41;;;;;;;0.83;0.80;;;10.40;99.90;;;;;;6157396;23;20145;-74
2023/01/16 04:52:07;;;;;;;1.77;0.80;;;10.40;99.90;;;;;;6157063;23;20153;-74
2023/01/16 04:54:33;;;;;;;4.03;1.10;;;10.30;99.90;;;;;;6157473;23;20161;-74
2023/01/16 04:57:00;;;;;;;2.50;0.83;;;10.30;99.90;;;;;;6121746;23;20230;-74
2023/01/16 04:59:27;;;;;;;2.53;0.90;;;10.30;99.90;;;;;;6121482;23;20252;-74
2023/01/16 05:01:53;;;;;;;1.87;0.90;;;10.30;99.90;;;;;;6119466;23;20245;-75
2023/01/16 05:04:20;;;;;;;1.03;0.70;;;10.30;99.90;;;;;;6095859;23;20195;-75
2023/01/16 05:06:48;;;;;;;1.10;0.83;;;10.30;99.90;;;;;;6120165;23;20157;-75
2023/01/16 05:09:18;;;;;;;0.50;0.50;;;10.30;99.90;;;;;;6157032;23;20153;-75
2023/01/16 05:11:44;;;;;;;1.40;0.70;;;10.30;99.90;;;;;;6156348;23;20157;-75
2023/01/16 05:14:13;;;;;;;1.00;0.90;;;10.30;99.90;;;;;;6155891;23;20149;-75
2023/01/16 05:16:44;;;;;;;1.00;0.90;;;10.30;99.90;;;;;;6095221;23;20172;-75
2023/01/16 05:19:13;;;;;;;1.30;0.93;;;10.30;99.90;;;;;;6120017;23;20773;-75
2023/01/16 05:21:40;;;;;;;4.67;1.67;;;10.20;99.90;;;;;;6096273;23;20164;-75
2023/01/16 05:24:07;;;;;;;3.73;1.50;;;10.20;99.90;;;;;;6121006;23;20247;-75
2023/01/16 05:26:33;;;;;;;3.57;1.50;;;10.20;99.90;;;;;;6094841;23;20160;-75
2023/01/16 05:28:59;;;;;;;3.10;1.57;;;10.20;99.90;;;;;;6120466;23;20192;-75
2023/01/16 05:31:25;;;;;;;2.33;1.50;;;10.20;99.90;;;;;;6144880;23;20468;-75
2023/01/16 05:33:51;;;;;;;1.13;1.03;;;10.20;99.90;;;;;;6120663;23;20161;-75
2023/01/16 05:36:18;;;;;;;2.60;1.00;;;10.20;99.90;;;;;;6156353;23;20157;-75
2023/01/16 05:38:46;;;;;;;1.57;0.70;;;10.10;99.90;;;;;;6155401;23;20169;-74
2023/01/16 05:41:14;;;;;;;1.80;0.70;;;10.20;99.90;;;;;;6155807;23;20180;-74
2023/01/16 05:43:40;;;;;;;1.40;0.70;;;10.20;99.90;;;;;;6120560;23;20161;-74
2023/01/16 05:46:07;;;;;;;1.60;0.83;;;10.20;99.90;;;;;;6156639;23;20508;-74
2023/01/16 05:48:35;;;;;;;2.00;0.60;;;10.20;99.90;;;;;;6094050;23;20563;-74
2023/01/16 05:51:03;;;;;;;2.33;0.60;;;10.20;99.90;;;;;;6096299;23;20244;-74
2023/01/16 05:53:32;;;;;;;1.13;0.63;;;10.20;99.90;;;;;;6157146;23;20165;-74
2023/01/16 05:56:06;;;;;;;1.20;0.60;;;10.20;99.90;;;;;;6156716;23;20157;-74
2023/01/16 05:58:32;;;;;;;1.30;0.80;;;10.30;99.90;;;;;;6155721;23;20165;-74
2023/01/16 06:00:58;;;;;;;2.23;0.83;;;10.30;99.90;;;;;;6156460;23;20169;-74
2023/01/16 06:03:25;;;;;;;0.87;0.80;;;10.30;99.90;;;;;;6143077;23;20200;-74
2023/01/16 06:05:51;;;;;;;1.77;0.57;;;10.30;99.90;;;;;;6155816;23;20156;-74
2023/01/16 06:08:18;;;;;;;0.80;0.60;;;10.30;99.90;;;;;;6120284;23;20268;-74
2023/01/16 06:10:45;;;;;;;1.80;0.57;;;10.30;99.90;;;;;;6144070;23;20215;-74
2023/01/16 06:13:11;;;;;;;1.60;0.80;;;10.30;99.90;;;;;;6119955;23;20191;-74
2023/01/16 06:15:45;;;;;;;0.97;0.70;;;10.40;99.90;;;;;;6118484;23;20768;-74
2023/01/16 06:18:14;;;;;;;1.70;0.83;;;10.40;99.90;;;;;;6155147;23;20176;-74
2023/01/16 06:20:42;;;;;;;0.60;0.60;;;10.40;99.90;;;;;;6156248;23;20311;-74
2023/01/16 06:23:09;;;;;;;1.73;0.60;;;10.40;99.90;;;;;;6156148;23;20172;-74
2023/01/16 06:25:36;;;;;;;0.83;0.80;;;10.40;99.90;;;;;;6118570;23;20188;-74
2023/01/16 06:28:04;;;;;;;1.37;0.80;;;10.40;99.90;;;;;;6154811;23;20264;-74
2023/01/16 06:30:30;;;;;;;1.73;0.70;;;10.40;99.90;;;;;;6118621;23;20161;-74
2023/01/16 06:32:57;;;;;;;2.40;0.90;;;10.40;99.90;;;;;;6154425;23;20153;-74
2023/01/16 06:35:25;;;;;;;0.57;0.53;;;10.40;99.90;;;;;;6154992;23;20195;-74
2023/01/16 06:37:54;;;;;;;1.40;0.87;;;10.50;99.90;;;;;;6119791;23;20187;-74
2023/01/16 06:40:20;;;;;;;2.70;0.90;;;10.50;99.90;;;;;;6156668;23;20248;-74
2023/01/16 06:42:47;;;;;;;1.27;0.90;;;10.50;99.90;;;;;;6096142;23;20161;-74
2023/01/16 06:45:14;;;;;;;0.80;0.80;;;10.50;99.90;;;;;;6118155;23;20290;-74
2023/01/16 06:47:40;;;;;;;1.57;0.90;;;10.50;99.90;;;;;;6154941;23;20177;-74
2023/01/16 06:50:08;;;;;;;1.00;0.90;;;10.50;99.90;;;;;;6154680;23;20167;-74
2023/01/16 06:52:34;;;;;;;1.47;0.90;;;10.60;99.90;;;;;;6095778;23;20243;-74
2023/01/16 06:55:01;;;;;;;1.47;0.90;;;10.60;99.90;;;;;;6119403;23;20180;-74
2023/01/16 06:57:27;;;;;;;1.57;0.90;;;10.60;99.90;;;;;;6118983;23;20165;-74
2023/01/16 06:59:53;;;;;;;1.07;0.90;;;10.60;99.90;;;;;;6156061;23;20165;-74
2023/01/16 07:02:21;;;;;;;1.50;0.87;;;10.60;99.90;;;;;;6154223;23;20265;-74
2023/01/16 07:04:47;;;;;;;1.10;0.90;;;10.60;99.90;;;;;;6118037;23;20231;-74
2023/01/16 07:07:14;;;;;;;1.47;0.90;;;10.60;99.90;;;;;;6118500;23;20224;-74
2023/01/16 07:09:40;;;;;;;0.97;0.90;;;10.60;99.90;;;;;;6119322;23;20211;-74
2023/01/16 07:12:07;;;;;;;1.67;0.90;;;10.60;99.90;;;;;;6096557;23;20152;-74
2023/01/16 07:22:49;;;;;;;0.90;0.80;;;10.80;99.90;;;;;;6157047;23;20157;-74
2023/01/16 07:25:33;;;;;;;1.90;0.97;;;10.90;99.90;;;;;;6156734;23;20168;-74
2023/01/16 07:28:00;;;;;;;2.97;1.10;;;10.90;99.90;;;;;;6121475;23;20719;-74
2023/01/16 07:30:26;;;;;;;1.87;1.00;;;10.90;99.90;;;;;;6121339;23;20203;-74
2023/01/16 07:32:53;;;;;;;2.43;1.20;;;11.00;99.90;;;;;;6121187;23;20157;-74
2023/01/16 07:35:21;;;;;;;2.73;1.20;;;11.00;99.90;;;;;;6119818;23;20161;-74
2023/01/16 07:37:50;;;;;;;1.97;1.20;;;11.10;99.90;;;;;;6121585;23;20231;-74
2023/01/16 07:40:16;;;;;;;1.10;0.93;;;11.20;99.90;;;;;;6158440;23;20184;-74
2023/01/16 07:42:43;;;;;;;4.10;1.10;;;11.20;99.90;;;;;;6096932;23;20216;-74
2023/01/16 07:45:09;;;;;;;1.87;1.00;;;11.20;99.90;;;;;;6156599;23;20165;-74
2023/01/16 07:47:36;;;;;;;3.27;1.00;;;11.20;99.90;;;;;;6097181;23;20223;-74
2023/01/16 07:50:04;;;;;;;1.30;1.00;;;11.20;99.90;;;;;;6144993;23;20194;-74
2023/01/16 07:52:30;;;;;;;2.20;1.13;;;11.20;99.90;;;;;;6120872;23;20226;-74
2023/01/16 07:54:56;;;;;;;1.53;0.93;;;11.30;99.90;;;;;;6095215;23;20161;-74
2023/01/16 07:57:27;;;;;;;2.17;1.23;;;11.40;99.90;;;;;;6120493;23;20168;-74
2023/01/16 07:59:54;;;;;;;1.97;1.10;;;11.50;99.90;;;;;;6121045;23;20607;-74
2023/01/16 08:02:22;;;;;;;1.37;0.87;;;11.50;99.90;;;;;;6141489;23;20217;-74
2023/01/16 08:04:48;;;;;;;1.63;0.90;;;11.60;99.90;;;;;;6155962;23;20231;-74
2023/01/16 08:07:14;;;;;;;2.17;0.97;;;11.60;99.90;;;;;;6156559;23;20216;-74
2023/01/16 08:09:40;;;;;;;1.10;1.00;;;11.60;99.90;;;;;;6156542;23;20157;-74
2023/01/16 08:12:07;;;;;;;2.60;1.30;;;11.60;99.90;;;;;;6156053;23;20172;-74
2023/01/16 08:14:33;;;;;;;1.80;1.40;;;11.60;99.90;;;;;;6156401;23;20157;-74
2023/01/16 08:17:00;;;;;;;1.20;1.00;;;11.60;99.90;;;;;;6119650;23;20276;-74
2023/01/16 08:19:26;;;;;;;3.43;1.00;;;11.60;99.90;;;;;;6156391;23;20196;-75
2023/01/16 08:21:56;;;;;;;1.97;1.07;;;11.60;99.90;;;;;;6095566;23;20168;-74
2023/01/16 08:24:23;;;;;;;1.10;1.00;;;11.60;99.90;;;;;;6119313;23;20157;-74
2023/01/16 08:26:50;;;;;;;4.13;0.90;;;11.60;99.90;;;;;;6117054;23;20175;-74
2023/01/16 08:29:16;;;;;;;0.97;0.87;;;11.60;99.90;;;;;;6156334;23;20215;-74
2023/01/16 08:31:45;;;;;;;1.07;0.93;;;11.60;99.90;;;;;;6155105;23;20164;-74
2023/01/16 08:34:13;;;;;;;1.13;0.90;;;11.60;99.90;;;;;;6118607;23;20165;-74
2023/01/16 08:36:39;;;;;;;1.20;1.10;;;11.60;99.90;;;;;;6094708;23;20165;-74
2023/01/16 08:39:08;;;;;;;1.40;1.10;;;11.70;99.90;;;;;;6155433;23;20216;-74
2023/01/16 08:52:51;;;;;;;3.77;1.53;;;12.00;99.90;;;;;;6142305;23;20196;-74
2023/01/16 08:55:18;;;;;;;3.33;2.30;;;12.10;99.90;;;;;;6150829;23;20487;-74
2023/01/16 08:57:44;;;;;;;5.20;1.47;;;12.10;99.90;;;;;;6151904;23;20169;-74
2023/01/16 09:00:11;;;;;;;3.87;1.47;;;12.20;99.90;;;;;;6118481;23;20161;-74
2023/01/16 09:02:38;;;;;;;1.80;0.97;;;12.20;99.90;;;;;;6151827;23;20167;-74
2023/01/16 09:05:05;;;;;;;1.90;1.03;;;12.30;99.90;;;;;;6118067;23;20834;-74
2023/01/16 09:07:31;;;;;;;2.17;1.10;;;12.20;99.90;;;;;;6152745;23;20256;-74
2023/01/16 09:09:58;;;;;;;1.30;1.10;;;12.20;99.90;;;;;;6152680;23;20157;-74
2023/01/16 09:15:09;;;;;;;1.77;1.03;;;12.20;99.90;;;;;;6154039;23;20160;-74
2023/01/16 09:17:35;;;;;;;1.50;1.00;;;12.20;99.90;;;;;;6154618;23;20176;-74
2023/01/16 09:20:02;;;;;;;2.50;1.10;;;12.20;99.90;;;;;;6094711;23;20759;-74
2023/01/16 09:22:28;;;;;;;2.37;1.27;;;12.20;99.90;;;;;;6156040;23;20491;-74
2023/01/16 09:24:54;;;;;;;5.40;1.20;;;12.30;99.90;;;;;;6120571;23;20161;-74
2023/01/16 09:27:21;;;;;;;5.60;1.30;;;12.40;99.90;;;;;;6119249;23;20268;-74
2023/01/16 09:29:48;;;;;;;1.60;1.20;;;12.40;99.90;;;;;;6119697;23;20161;-74
2023/01/16 09:32:16;;;;;;;1.10;1.00;;;12.40;99.90;;;;;;6117919;23;20180;-74
2023/01/16 09:34:43;;;;;;;1.80;1.20;;;12.50;99.90;;;;;;6119093;23;20164;-74
2023/01/16 09:37:10;;;;;;;1.83;1.30;;;12.50;99.90;;;;;;6094676;23;20188;-74
2023/01/16 09:39:38;;;;;;;2.87;1.30;;;12.60;99.90;;;;;;6119278;23;20578;-74
2023/01/16 09:45:06;;;;;;;1.60;1.40;;;12.70;99.90;;;;;;6116779;23;20260;-74
2023/01/16 09:47:34;;;;;;;1.37;1.10;;;12.70;99.90;;;;;;6155115;23;20219;-74
2023/01/16 09:50:19;;;;;;;7.43;1.70;;;12.70;99.90;;;;;;6156034;23;20623;-74
2023/01/16 09:58:35;;;;;;;2.07;1.30;;;12.70;99.90;;;;;;6155797;23;20188;-74
2023/01/16 10:01:05;;;;;;;3.27;1.40;;;12.70;99.90;;;;;;6157009;23;20168;-74
2023/01/16 10:03:31;;;;;;;1.97;1.30;;;12.60;99.90;;;;;;6118697;23;20161;-74
2023/01/16 10:06:17;;;;;;;3.17;1.50;;;12.60;99.90;;;;;;6094460;23;20168;-74
2023/01/16 10:09:13;;;;;;;3.67;1.73;;;12.60;99.90;;;;;;6118833;23;20615;-74
2023/01/16 10:12:05;;;;;;;3.53;1.40;;;12.60;99.90;;;;;;6154333;23;20160;-74
2023/01/16 10:15:10;;;;;;;1.77;1.37;;;12.60;99.90;;;;;;6153960;23;20883;-74
2023/01/16 10:18:00;;;;;;;2.90;1.23;;;12.60;99.90;;;;;;6094203;23;20176;-74
2023/01/16 10:20:49;;;;;;;1.67;1.27;;;12.50;99.90;;;;;;6155970;23;20169;-74
2023/01/16 10:23:54;;;;;;;2.17;1.40;;;12.50;99.90;;;;;;6119649;23;20248;-74
2023/01/16 10:26:46;;;;;;;2.77;1.20;;;12.50;99.90;;;;;;6104158;23;20458;-74
2023/01/16 10:30:04;;;;;;;1.57;1.20;;;12.40;99.90;;;;;;6117799;23;20177;-74
2023/01/16 10:32:38;;;;;;;2.30;1.40;;;12.40;99.90;;;;;;6073122;23;20159;-74
2023/01/16 10:35:26;;;;;;;2.53;1.40;;;12.30;99.90;;;;;;6117950;23;20214;-74
2023/01/16 10:37:57;;;;;;;3.77;1.57;;;12.30;99.90;;;;;;6119899;23;20177;-74
2023/01/16 10:40:29;;;;;;;4.00;1.70;;;12.20;99.90;;;;;;6118572;23;20224;-74
2023/01/16 10:51:45;;;;;;;3.00;1.60;;;12.20;99.90;;;;;;6154673;23;20360;-74
2023/01/16 10:54:11;;;;;;;3.60;1.80;;;12.20;99.90;;;;;;6118156;23;20666;-74
2023/01/16 10:56:41;;;;;;;2.77;1.80;;;12.20;99.90;;;;;;6143245;23;20196;-74
2023/01/16 10:59:15;;;;;;;3.60;1.90;;;12.20;99.90;;;;;;6156137;23;20443;-74
2023/01/16 11:01:42;;;;;;;4.37;2.13;;;12.10;99.90;;;;;;6118370;23;20161;-74
2023/01/16 11:04:12;;;;;;;1.90;1.60;;;12.10;99.90;;;;;;6091673;23;20161;-74
2023/01/16 11:06:41;;;;;;;7.27;2.10;;;12.10;99.90;;;;;;6094471;23;20563;-74
2023/01/16 11:09:13;;;;;;;2.50;1.60;;;12.20;99.90;;;;;;6094355;23;20291;-74
2023/01/16 11:20:28;;;;;;;1.97;1.60;;;12.20;99.90;;;;;;6117595;23;20157;-74
2023/01/16 11:23:20;;;;;;;3.33;1.70;;;12.20;99.90;;;;;;6154775;23;20160;-74
2023/01/16 11:25:50;;;;;;;2.03;1.50;;;12.20;99.90;;;;;;6154442;23;20223;-74
2023/01/16 11:28:26;;;;;;;3.83;1.70;;;12.30;99.90;;;;;;6154153;23;20184;-74
2023/01/16 11:31:30;;;;;;;1.57;1.40;;;12.30;99.90;;;;;;6152291;23;20219;-74
2023/01/16 11:34:04;;;;;;;2.00;1.60;;;12.40;99.90;;;;;;6089838;23;20188;-74
2023/01/16 11:36:38;;;;;;;3.47;1.47;;;12.40;99.90;;;;;;6153770;23;20153;-74
2023/01/16 11:39:17;;;;;;;9.40;1.53;;;12.40;99.90;;;;;;6142579;23;20584;-74
2023/01/16 11:41:50;;;;;;;7.20;1.80;;;12.50;99.90;;;;;;6154556;23;20161;-74
2023/01/16 11:47:17;;;;;;;3.93;1.40;;;12.50;99.90;;;;;;6155697;23;20181;-74
2023/01/16 11:49:51;;;;;;;7.27;1.60;;;12.60;99.90;;;;;;6117883;23;20192;-74
2023/01/16 11:52:27;;;;;;;5.37;1.70;;;12.60;99.90;;;;;;6118973;23;20252;-74
2023/01/16 11:55:03;;;;;;;4.40;1.73;;;12.60;99.90;;;;;;6154904;23;20239;-74
2023/01/16 11:57:44;;;;;;;2.50;1.80;;;12.60;99.90;;;;;;6118813;23;20223;-74
2023/01/16 12:00:59;;;;;;;1.90;1.33;;;12.60;99.90;;;;;;6120812;23;20255;-74
2023/01/16 12:04:04;;;;;;;5.13;1.60;;;12.50;99.90;;;;;;6118871;23;20203;-74
2023/01/16 12:06:33;;;;;;;3.80;1.57;;;12.50;99.90;;;;;;6110535;23;20584;-74
2023/01/16 12:09:28;;;;;;;3.07;1.40;;;12.50;99.90;;;;;;6121540;23;20224;-74
2023/01/16 12:16:02;;;;;;;3.00;1.30;;;12.50;99.90;;;;;;6119622;23;20244;-74
2023/01/16 12:18:57;;;;;;;2.37;0.83;;;12.40;99.90;;;;;;6155883;23;20168;-74
2023/01/16 12:21:46;;;;;;;2.93;0.80;;;12.40;99.90;;;;;;6120439;23;20157;-74
2023/01/16 12:24:45;;;;;;;4.00;0.70;;;12.20;99.90;;;;;;6156696;23;20157;-74
2023/01/16 12:27:46;;;;;;;1.63;0.80;;;12.20;99.90;;;;;;6156146;23;20181;-74
2023/01/16 12:31:38;;;;;;;0.70;0.53;;;12.10;99.90;;;;;;6120756;23;20827;-74
2023/01/16 12:34:37;;;;;;;1.23;0.80;;;12.10;99.90;;;;;;6142309;23;20225;-74
2023/01/16 12:37:32;;;;;;;4.00;1.20;;;12.00;99.90;;;;;;6155218;23;20167;-74
2023/01/16 12:40:29;;;;;;;3.33;1.50;;;12.10;99.90;;;;;;6155445;23;20164;-74
2023/01/16 12:43:36;;;;;;;3.00;1.73;;;12.20;99.90;;;;;;6094524;23;20176;-74
2023/01/16 12:46:34;;;;;;;4.30;1.60;;;12.30;99.90;;;;;;6154895;23;20172;-74
2023/01/16 12:49:45;;;;;;;3.53;1.57;;;12.40;99.90;;;;;;6119002;23;20181;-74
2023/01/16 12:53:06;;;;;;;4.33;1.80;;;12.50;99.90;;;;;;6100001;23;20172;-74
2023/01/16 12:56:03;;;;;;;3.63;2.00;;;12.60;99.90;;;;;;6089180;23;20626;-75
2023/01/16 12:58:40;;;;;;;3.67;1.40;;;12.70;99.90;;;;;;6119338;23;20599;-74
2023/01/16 13:01:19;;;;;;;2.83;1.50;;;12.60;99.90;;;;;;6155643;23;20575;-74
2023/01/16 13:04:00;;;;;;;1.90;1.20;;;12.70;99.90;;;;;;6119544;23;20165;-74
2023/01/16 13:06:56;;;;;;;2.50;1.30;;;12.70;99.90;;;;;;6154294;23;20145;-74
2023/01/16 13:15:37;;;;;;;2.07;1.00;;;12.80;99.90;;;;;;6153005;23;20152;-74
2023/01/16 13:18:17;;;;;;;2.23;1.40;;;12.80;99.90;;;;;;6119811;23;20610;-74
2023/01/16 13:20:49;;;;;;;6.83;1.57;;;12.80;99.90;;;;;;6095937;23;20550;-74
2023/01/16 13:23:23;;;;;;;3.07;1.20;;;12.90;99.90;;;;;;6120733;23;20708;-74
2023/01/16 13:26:02;;;;;;;2.40;1.30;;;12.90;99.90;;;;;;6119011;23;20412;-74
2023/01/16 13:28:59;;;;;;;2.20;1.40;;;13.00;99.90;;;;;;6120846;23;20643;-74
2023/01/16 13:31:42;;;;;;;3.57;1.63;;;13.00;99.90;;;;;;6156622;23;20208;-74
2023/01/16 13:34:34;;;;;;;2.07;1.33;;;13.10;99.90;;;;;;6156515;23;20165;-74
2023/01/16 13:37:05;;;;;;;1.60;1.20;;;13.10;99.90;;;;;;6158274;23;20188;-74
2023/01/16 13:39:49;;;;;;;1.80;1.10;;;13.10;99.90;;;;;;6093444;23;20172;-74
2023/01/16 13:42:17;;;;;;;2.90;1.60;;;13.10;99.90;;;;;;6117107;23;20666;-74
2023/01/16 13:47:43;;;;;;;1.20;0.90;;;13.00;99.90;;;;;;6119591;23;20725;-74
2023/01/16 13:50:24;;;;;;;2.03;1.20;;;13.00;99.90;;;;;;6146507;23;20183;-74
2023/01/16 13:53:01;;;;;;;2.50;1.17;;;13.00;99.90;;;;;;6119849;23;20173;-74
2023/01/16 13:55:39;;;;;;;3.43;0.93;;;13.00;99.90;;;;;;6095565;23;20725;-74
2023/01/16 13:58:22;;;;;;;1.37;0.73;;;13.00;99.90;;;;;;6156631;23;20157;-74
2023/01/16 14:01:04;;;;;;;2.67;0.80;;;12.90;99.90;;;;;;6157695;23;20188;-74
2023/01/16 14:03:35;;;;;;;3.13;1.10;;;12.90;99.90;;;;;;6157046;23;20160;-74
2023/01/16 14:06:11;;;;;;;1.67;1.10;;;12.90;99.90;;;;;;6121085;23;20248;-74
2023/01/16 14:09:07;;;;;;;2.17;1.10;;;12.80;99.90;;;;;;6120885;23;20275;-74
2023/01/16 14:12:12;;;;;;;1.30;1.03;;;12.80;99.90;;;;;;6121375;23;20599;-74
2023/01/16 14:17:53;;;;;;;2.83;1.00;;;12.80;99.90;;;;;;6157335;23;20263;-74
2023/01/16 14:20:46;;;;;;;1.17;0.87;;;12.70;99.90;;;;;;6121806;23;20199;-74
2023/01/16 14:26:44;;;;;;;0.97;0.90;;;12.60;99.90;;;;;;6119847;23;20530;-74
2023/01/16 14:29:27;;;;;;;3.63;1.00;;;12.50;99.90;;;;;;6121416;23;20220;-74
2023/01/16 14:32:25;;;;;;;4.13;1.17;;;12.40;99.90;;;;;;6157373;23;20244;-74
2023/01/16 14:34:53;;;;;;;2.00;0.90;;;12.40;99.90;;;;;;6119080;23;20457;-74
2023/01/16 14:37:43;;;;;;;1.40;1.00;;;12.40;99.90;;;;;;6157367;23;20169;-74
2023/01/16 14:40:13;;;;;;;1.30;1.00;;;12.30;99.90;;;;;;6145489;23;20336;-74
2023/01/16 14:55:46;;;;;;;1.17;1.03;;;12.10;99.90;;;;;;6120241;23;20164;-74
2023/01/16 14:58:38;;;;;;;2.80;1.20;;;12.10;99.90;;;;;;6157157;23;20611;-74